sensor_id;sensor_type;location;lat;lon;timestamp;temperature;humidity
74376;HTU21D;62812;55.188;61.302;2023-08-31T00:01:31;9.95;91.79
74376;HTU21D;62812;55.188;61.302;2023-08-31T00:04:00;9.95;92.12
74376;HTU21D;62812;55.188;61.302;2023-08-31T00:06:26;9.98;92.09
74376;HTU21D;62812;55.188;61.302;2023-08-31T00:08:53;10.03;92.16
74376;HTU21D;62812;55.188;61.302;2023-08-31T00:11:21;10.01;92.07
74376;HTU21D;62812;55.188;61.302;2023-08-31T00:13:48;10.01;92.21
74376;HTU21D;62812;55.188;61.302;2023-08-31T00:16:14;10.03;92.15
74376;HTU21D;62812;55.188;61.302;2023-08-31T00:18:41;10.04;91.97
74376;HTU21D;62812;55.188;61.302;2023-08-31T00:21:08;10.05;92.34
74376;HTU21D;62812;55.188;61.302;2023-08-31T00:23:35;10.07;92.22
74376;HTU21D;62812;55.188;61.302;2023-08-31T00:26:03;10.08;92.43
74376;HTU21D;62812;55.188;61.302;2023-08-31T00:28:31;10.08;92.33
74376;HTU21D;62812;55.188;61.302;2023-08-31T00:31:00;10.10;92.24
74376;HTU21D;62812;55.188;61.302;2023-08-31T00:33:30;10.09;92.19
74376;HTU21D;62812;55.188;61.302;2023-08-31T00:35:59;10.10;92.46
74376;HTU21D;62812;55.188;61.302;2023-08-31T00:38:27;10.12;92.52
74376;HTU21D;62812;55.188;61.302;2023-08-31T00:40:55;10.12;92.30
74376;HTU21D;62812;55.188;61.302;2023-08-31T00:43:21;10.14;92.32
74376;HTU21D;62812;55.188;61.302;2023-08-31T00:45:51;10.14;92.08
74376;HTU21D;62812;55.188;61.302;2023-08-31T00:48:22;10.14;92.18
74376;HTU21D;62812;55.188;61.302;2023-08-31T00:50:49;10.14;91.99
74376;HTU21D;62812;55.188;61.302;2023-08-31T00:53:16;10.14;92.11
74376;HTU21D;62812;55.188;61.302;2023-08-31T00:55:44;10.15;92.14
74376;HTU21D;62812;55.188;61.302;2023-08-31T00:58:11;10.15;91.89
74376;HTU21D;62812;55.188;61.302;2023-08-31T01:00:43;10.14;91.89
74376;HTU21D;62812;55.188;61.302;2023-08-31T01:03:22;10.15;91.87
74376;HTU21D;62812;55.188;61.302;2023-08-31T01:05:59;10.18;92.17
74376;HTU21D;62812;55.188;61.302;2023-08-31T01:08:33;10.20;92.33
74376;HTU21D;62812;55.188;61.302;2023-08-31T01:11:10;10.22;92.02
74376;HTU21D;62812;55.188;61.302;2023-08-31T01:13:41;10.21;91.85
74376;HTU21D;62812;55.188;61.302;2023-08-31T01:16:08;10.21;92.09
74376;HTU21D;62812;55.188;61.302;2023-08-31T01:18:39;10.23;91.97
74376;HTU21D;62812;55.188;61.302;2023-08-31T01:21:11;10.22;91.95
74376;HTU21D;62812;55.188;61.302;2023-08-31T01:23:58;10.23;91.76
74376;HTU21D;62812;55.188;61.302;2023-08-31T01:26:25;10.18;91.47
74376;HTU21D;62812;55.188;61.302;2023-08-31T01:28:52;10.14;91.77
74376;HTU21D;62812;55.188;61.302;2023-08-31T01:31:20;10.09;91.59
74376;HTU21D;62812;55.188;61.302;2023-08-31T01:37:07;10.06;91.69
74376;HTU21D;62812;55.188;61.302;2023-08-31T01:39:39;10.06;91.96
74376;HTU21D;62812;55.188;61.302;2023-08-31T01:42:11;10.03;91.65
74376;HTU21D;62812;55.188;61.302;2023-08-31T01:44:40;10.00;91.78
74376;HTU21D;62812;55.188;61.302;2023-08-31T01:47:07;9.98;91.42
74376;HTU21D;62812;55.188;61.302;2023-08-31T01:49:37;10.00;91.73
74376;HTU21D;62812;55.188;61.302;2023-08-31T01:52:05;9.97;91.58
74376;HTU21D;62812;55.188;61.302;2023-08-31T01:54:32;9.98;91.89
74376;HTU21D;62812;55.188;61.302;2023-08-31T01:57:00;9.96;91.65
74376;HTU21D;62812;55.188;61.302;2023-08-31T01:59:26;9.96;91.63
74376;HTU21D;62812;55.188;61.302;2023-08-31T02:01:53;9.95;91.78
74376;HTU21D;62812;55.188;61.302;2023-08-31T02:04:22;9.94;91.60
74376;HTU21D;62812;55.188;61.302;2023-08-31T02:07:01;9.97;91.82
74376;HTU21D;62812;55.188;61.302;2023-08-31T02:09:28;9.98;91.76
74376;HTU21D;62812;55.188;61.302;2023-08-31T02:11:54;10.03;92.26
74376;HTU21D;62812;55.188;61.302;2023-08-31T02:14:23;10.11;92.17
74376;HTU21D;62812;55.188;61.302;2023-08-31T02:16:50;10.23;92.35
74376;HTU21D;62812;55.188;61.302;2023-08-31T02:19:16;10.29;92.22
74376;HTU21D;62812;55.188;61.302;2023-08-31T02:21:43;10.34;91.76
74376;HTU21D;62812;55.188;61.302;2023-08-31T02:24:09;10.45;91.68
74376;HTU21D;62812;55.188;61.302;2023-08-31T02:26:36;10.63;92.11
74376;HTU21D;62812;55.188;61.302;2023-08-31T02:29:03;10.79;91.14
74376;HTU21D;62812;55.188;61.302;2023-08-31T02:31:32;10.95;91.01
74376;HTU21D;62812;55.188;61.302;2023-08-31T02:33:58;11.10;90.46
74376;HTU21D;62812;55.188;61.302;2023-08-31T02:36:25;11.15;89.40
74376;HTU21D;62812;55.188;61.302;2023-08-31T02:38:51;11.34;89.68
74376;HTU21D;62812;55.188;61.302;2023-08-31T02:41:19;11.61;90.34
74376;HTU21D;62812;55.188;61.302;2023-08-31T02:43:45;11.89;89.34
74376;HTU21D;62812;55.188;61.302;2023-08-31T02:46:12;12.18;88.91
74376;HTU21D;62812;55.188;61.302;2023-08-31T02:48:44;12.35;87.67
74376;HTU21D;62812;55.188;61.302;2023-08-31T02:51:10;12.43;87.62
74376;HTU21D;62812;55.188;61.302;2023-08-31T02:53:37;12.53;87.04
74376;HTU21D;62812;55.188;61.302;2023-08-31T02:56:04;12.82;86.71
74376;HTU21D;62812;55.188;61.302;2023-08-31T02:58:30;13.11;86.34
74376;HTU21D;62812;55.188;61.302;2023-08-31T03:01:07;13.31;85.27
74376;HTU21D;62812;55.188;61.302;2023-08-31T03:03:34;13.47;83.98
74376;HTU21D;62812;55.188;61.302;2023-08-31T03:06:02;13.71;83.95
74376;HTU21D;62812;55.188;61.302;2023-08-31T03:08:32;13.98;83.90
74376;HTU21D;62812;55.188;61.302;2023-08-31T03:10:59;14.29;83.44
74376;HTU21D;62812;55.188;61.302;2023-08-31T03:13:26;14.44;80.77
74376;HTU21D;62812;55.188;61.302;2023-08-31T03:15:52;14.55;79.57
74376;HTU21D;62812;55.188;61.302;2023-08-31T03:18:19;14.65;79.75
74376;HTU21D;62812;55.188;61.302;2023-08-31T03:20:46;14.69;78.21
74376;HTU21D;62812;55.188;61.302;2023-08-31T03:23:17;14.74;78.31
74376;HTU21D;62812;55.188;61.302;2023-08-31T03:25:43;14.91;78.51
74376;HTU21D;62812;55.188;61.302;2023-08-31T03:28:10;15.11;77.72
74376;HTU21D;62812;55.188;61.302;2023-08-31T03:30:40;15.39;78.72
74376;HTU21D;62812;55.188;61.302;2023-08-31T03:33:07;15.34;76.37
74376;HTU21D;62812;55.188;61.302;2023-08-31T03:35:37;15.45;79.67
74376;HTU21D;62812;55.188;61.302;2023-08-31T03:38:04;15.75;76.56
74376;HTU21D;62812;55.188;61.302;2023-08-31T03:40:32;15.81;75.05
74376;HTU21D;62812;55.188;61.302;2023-08-31T03:42:59;16.05;74.89
74376;HTU21D;62812;55.188;61.302;2023-08-31T03:45:25;16.12;74.75
74376;HTU21D;62812;55.188;61.302;2023-08-31T03:47:54;16.01;76.12
74376;HTU21D;62812;55.188;61.302;2023-08-31T03:50:21;15.90;72.22
74376;HTU21D;62812;55.188;61.302;2023-08-31T03:52:49;15.73;72.83
74376;HTU21D;62812;55.188;61.302;2023-08-31T03:55:16;15.75;72.01
74376;HTU21D;62812;55.188;61.302;2023-08-31T03:57:45;15.88;72.04
74376;HTU21D;62812;55.188;61.302;2023-08-31T04:00:12;16.22;74.15
74376;HTU21D;62812;55.188;61.302;2023-08-31T04:02:42;16.40;72.03
74376;HTU21D;62812;55.188;61.302;2023-08-31T04:05:10;16.26;72.25
74376;HTU21D;62812;55.188;61.302;2023-08-31T04:07:37;16.25;71.93
74376;HTU21D;62812;55.188;61.302;2023-08-31T04:10:04;16.04;69.99
74376;HTU21D;62812;55.188;61.302;2023-08-31T04:12:31;15.95;71.02
74376;HTU21D;62812;55.188;61.302;2023-08-31T04:14:59;15.82;70.83
74376;HTU21D;62812;55.188;61.302;2023-08-31T04:17:26;15.74;71.79
74376;HTU21D;62812;55.188;61.302;2023-08-31T04:19:53;15.61;71.77
74376;HTU21D;62812;55.188;61.302;2023-08-31T04:22:20;15.48;71.77
74376;HTU21D;62812;55.188;61.302;2023-08-31T04:24:47;15.36;72.88
74376;HTU21D;62812;55.188;61.302;2023-08-31T04:27:16;15.25;71.64
74376;HTU21D;62812;55.188;61.302;2023-08-31T04:29:43;15.12;73.08
74376;HTU21D;62812;55.188;61.302;2023-08-31T04:32:11;15.00;72.54
74376;HTU21D;62812;55.188;61.302;2023-08-31T04:34:40;14.89;72.27
74376;HTU21D;62812;55.188;61.302;2023-08-31T04:37:06;14.80;72.99
74376;HTU21D;62812;55.188;61.302;2023-08-31T04:39:33;14.70;71.26
74376;HTU21D;62812;55.188;61.302;2023-08-31T04:42:00;14.78;70.78
74376;HTU21D;62812;55.188;61.302;2023-08-31T04:44:27;14.95;72.19
74376;HTU21D;62812;55.188;61.302;2023-08-31T04:46:56;15.12;71.63
74376;HTU21D;62812;55.188;61.302;2023-08-31T04:49:24;15.27;71.22
74376;HTU21D;62812;55.188;61.302;2023-08-31T04:51:50;15.33;70.11
74376;HTU21D;62812;55.188;61.302;2023-08-31T04:54:17;15.43;72.48
74376;HTU21D;62812;55.188;61.302;2023-08-31T04:56:46;15.54;69.23
74376;HTU21D;62812;55.188;61.302;2023-08-31T04:59:13;15.54;68.55
74376;HTU21D;62812;55.188;61.302;2023-08-31T05:01:42;15.62;69.42
74376;HTU21D;62812;55.188;61.302;2023-08-31T05:04:09;15.68;69.15
74376;HTU21D;62812;55.188;61.302;2023-08-31T05:06:37;15.85;68.42
74376;HTU21D;62812;55.188;61.302;2023-08-31T05:09:04;15.96;69.84
74376;HTU21D;62812;55.188;61.302;2023-08-31T05:11:32;16.11;67.95
74376;HTU21D;62812;55.188;61.302;2023-08-31T05:13:59;16.30;67.56
74376;HTU21D;62812;55.188;61.302;2023-08-31T05:16:25;16.40;67.91
74376;HTU21D;62812;55.188;61.302;2023-08-31T05:18:52;16.42;65.50
74376;HTU21D;62812;55.188;61.302;2023-08-31T05:21:19;16.47;65.88
74376;HTU21D;62812;55.188;61.302;2023-08-31T05:23:47;16.54;67.28
74376;HTU21D;62812;55.188;61.302;2023-08-31T05:26:13;16.52;65.21
74376;HTU21D;62812;55.188;61.302;2023-08-31T05:28:42;16.42;64.20
74376;HTU21D;62812;55.188;61.302;2023-08-31T05:31:09;16.41;62.92
74376;HTU21D;62812;55.188;61.302;2023-08-31T05:33:36;16.47;65.55
74376;HTU21D;62812;55.188;61.302;2023-08-31T05:36:07;16.47;63.52
74376;HTU21D;62812;55.188;61.302;2023-08-31T05:38:34;16.49;64.63
74376;HTU21D;62812;55.188;61.302;2023-08-31T05:41:08;16.55;68.52
74376;HTU21D;62812;55.188;61.302;2023-08-31T05:43:36;16.57;67.65
74376;HTU21D;62812;55.188;61.302;2023-08-31T05:46:04;16.55;70.52
74376;HTU21D;62812;55.188;61.302;2023-08-31T05:48:31;16.52;69.35
74376;HTU21D;62812;55.188;61.302;2023-08-31T05:50:57;16.48;68.85
74376;HTU21D;62812;55.188;61.302;2023-08-31T05:53:24;16.39;68.74
74376;HTU21D;62812;55.188;61.302;2023-08-31T05:55:50;16.39;69.35
74376;HTU21D;62812;55.188;61.302;2023-08-31T05:58:18;16.37;68.58
74376;HTU21D;62812;55.188;61.302;2023-08-31T06:00:45;16.45;72.45
74376;HTU21D;62812;55.188;61.302;2023-08-31T06:03:11;16.49;69.65
74376;HTU21D;62812;55.188;61.302;2023-08-31T06:05:38;16.49;66.79
74376;HTU21D;62812;55.188;61.302;2023-08-31T06:08:05;16.58;67.99
74376;HTU21D;62812;55.188;61.302;2023-08-31T06:10:32;16.62;68.97
74376;HTU21D;62812;55.188;61.302;2023-08-31T06:13:00;16.70;68.19
74376;HTU21D;62812;55.188;61.302;2023-08-31T06:15:30;16.73;67.33
74376;HTU21D;62812;55.188;61.302;2023-08-31T06:17:57;16.82;67.53
74376;HTU21D;62812;55.188;61.302;2023-08-31T06:20:24;16.96;69.77
74376;HTU21D;62812;55.188;61.302;2023-08-31T06:22:55;17.09;71.24
74376;HTU21D;62812;55.188;61.302;2023-08-31T06:25:24;17.21;68.97
74376;HTU21D;62812;55.188;61.302;2023-08-31T06:28:01;17.15;66.43
74376;HTU21D;62812;55.188;61.302;2023-08-31T06:30:32;17.07;67.83
74376;HTU21D;62812;55.188;61.302;2023-08-31T06:32:59;16.99;66.70
74376;HTU21D;62812;55.188;61.302;2023-08-31T06:35:26;16.98;69.18
74376;HTU21D;62812;55.188;61.302;2023-08-31T06:37:53;16.96;67.87
74376;HTU21D;62812;55.188;61.302;2023-08-31T06:40:22;16.95;66.91
74376;HTU21D;62812;55.188;61.302;2023-08-31T06:43:13;16.94;66.95
74376;HTU21D;62812;55.188;61.302;2023-08-31T06:45:42;16.89;67.86
74376;HTU21D;62812;55.188;61.302;2023-08-31T06:48:08;16.90;68.19
74376;HTU21D;62812;55.188;61.302;2023-08-31T06:50:35;16.87;69.22
74376;HTU21D;62812;55.188;61.302;2023-08-31T06:53:02;16.88;70.38
74376;HTU21D;62812;55.188;61.302;2023-08-31T06:55:29;16.84;69.21
74376;HTU21D;62812;55.188;61.302;2023-08-31T06:57:58;16.80;69.08
74376;HTU21D;62812;55.188;61.302;2023-08-31T07:00:25;16.91;70.97
74376;HTU21D;62812;55.188;61.302;2023-08-31T07:02:53;16.94;69.00
74376;HTU21D;62812;55.188;61.302;2023-08-31T07:05:24;17.01;68.71
74376;HTU21D;62812;55.188;61.302;2023-08-31T07:07:52;16.98;67.85
74376;HTU21D;62812;55.188;61.302;2023-08-31T07:10:20;16.99;66.22
74376;HTU21D;62812;55.188;61.302;2023-08-31T07:12:46;16.99;67.46
74376;HTU21D;62812;55.188;61.302;2023-08-31T07:15:14;17.00;64.96
74376;HTU21D;62812;55.188;61.302;2023-08-31T07:17:40;17.03;68.46
74376;HTU21D;62812;55.188;61.302;2023-08-31T07:20:10;17.08;66.75
74376;HTU21D;62812;55.188;61.302;2023-08-31T07:22:37;17.13;64.27
74376;HTU21D;62812;55.188;61.302;2023-08-31T07:25:13;17.16;64.29
74376;HTU21D;62812;55.188;61.302;2023-08-31T07:27:40;17.23;64.88
74376;HTU21D;62812;55.188;61.302;2023-08-31T07:30:07;17.25;69.49
74376;HTU21D;62812;55.188;61.302;2023-08-31T07:32:37;17.21;64.34
74376;HTU21D;62812;55.188;61.302;2023-08-31T07:35:04;17.17;62.73
74376;HTU21D;62812;55.188;61.302;2023-08-31T07:37:32;17.07;63.13
74376;HTU21D;62812;55.188;61.302;2023-08-31T07:40:05;16.99;65.32
74376;HTU21D;62812;55.188;61.302;2023-08-31T07:42:38;16.94;67.00
74376;HTU21D;62812;55.188;61.302;2023-08-31T07:45:06;16.93;65.59
74376;HTU21D;62812;55.188;61.302;2023-08-31T07:47:33;16.93;65.67
74376;HTU21D;62812;55.188;61.302;2023-08-31T07:49:59;16.92;66.67
74376;HTU21D;62812;55.188;61.302;2023-08-31T07:52:26;16.92;66.45
74376;HTU21D;62812;55.188;61.302;2023-08-31T07:54:56;16.92;67.27
74376;HTU21D;62812;55.188;61.302;2023-08-31T07:57:23;16.99;67.81
74376;HTU21D;62812;55.188;61.302;2023-08-31T07:59:50;17.01;67.55
74376;HTU21D;62812;55.188;61.302;2023-08-31T08:02:17;17.03;65.20
74376;HTU21D;62812;55.188;61.302;2023-08-31T08:04:45;17.06;66.78
74376;HTU21D;62812;55.188;61.302;2023-08-31T08:07:12;17.14;67.91
74376;HTU21D;62812;55.188;61.302;2023-08-31T08:09:39;17.31;69.29
74376;HTU21D;62812;55.188;61.302;2023-08-31T08:12:08;17.32;65.69
74376;HTU21D;62812;55.188;61.302;2023-08-31T08:14:35;17.29;64.93
74376;HTU21D;62812;55.188;61.302;2023-08-31T08:17:02;17.21;63.64
74376;HTU21D;62812;55.188;61.302;2023-08-31T08:19:30;17.25;65.09
74376;HTU21D;62812;55.188;61.302;2023-08-31T08:21:57;17.23;62.74
74376;HTU21D;62812;55.188;61.302;2023-08-31T08:24:25;17.29;63.97
74376;HTU21D;62812;55.188;61.302;2023-08-31T08:26:52;17.28;65.42
74376;HTU21D;62812;55.188;61.302;2023-08-31T08:29:20;17.25;62.32
74376;HTU21D;62812;55.188;61.302;2023-08-31T08:31:47;17.23;63.68
74376;HTU21D;62812;55.188;61.302;2023-08-31T08:34:14;17.23;64.86
74376;HTU21D;62812;55.188;61.302;2023-08-31T08:36:41;17.24;65.53
74376;HTU21D;62812;55.188;61.302;2023-08-31T08:39:08;17.25;64.61
74376;HTU21D;62812;55.188;61.302;2023-08-31T08:41:35;17.24;64.39
74376;HTU21D;62812;55.188;61.302;2023-08-31T08:47:32;17.23;63.66
74376;HTU21D;62812;55.188;61.302;2023-08-31T08:49:59;17.30;64.15
74376;HTU21D;62812;55.188;61.302;2023-08-31T08:52:27;17.30;62.99
74376;HTU21D;62812;55.188;61.302;2023-08-31T08:54:55;17.33;64.91
74376;HTU21D;62812;55.188;61.302;2023-08-31T08:57:24;17.40;64.76
74376;HTU21D;62812;55.188;61.302;2023-08-31T09:00:01;17.44;65.88
74376;HTU21D;62812;55.188;61.302;2023-08-31T09:02:29;17.50;64.81
74376;HTU21D;62812;55.188;61.302;2023-08-31T09:04:58;17.47;63.90
74376;HTU21D;62812;55.188;61.302;2023-08-31T09:07:25;17.43;64.30
74376;HTU21D;62812;55.188;61.302;2023-08-31T09:09:55;17.41;62.86
74376;HTU21D;62812;55.188;61.302;2023-08-31T09:12:24;17.33;62.18
74376;HTU21D;62812;55.188;61.302;2023-08-31T09:14:58;17.33;62.04
74376;HTU21D;62812;55.188;61.302;2023-08-31T09:20:11;17.26;63.98
74376;HTU21D;62812;55.188;61.302;2023-08-31T09:22:42;17.16;63.13
74376;HTU21D;62812;55.188;61.302;2023-08-31T09:25:10;17.15;64.61
74376;HTU21D;62812;55.188;61.302;2023-08-31T09:27:37;17.11;61.55
74376;HTU21D;62812;55.188;61.302;2023-08-31T09:30:06;17.13;67.56
74376;HTU21D;62812;55.188;61.302;2023-08-31T09:32:33;17.13;63.28
74376;HTU21D;62812;55.188;61.302;2023-08-31T09:34:59;17.18;65.14
74376;HTU21D;62812;55.188;61.302;2023-08-31T09:37:31;17.21;63.33
74376;HTU21D;62812;55.188;61.302;2023-08-31T09:40:02;17.24;63.02
74376;HTU21D;62812;55.188;61.302;2023-08-31T09:42:36;17.22;62.79
74376;HTU21D;62812;55.188;61.302;2023-08-31T09:45:06;17.14;63.34
74376;HTU21D;62812;55.188;61.302;2023-08-31T09:47:35;17.06;60.64
74376;HTU21D;62812;55.188;61.302;2023-08-31T09:50:05;17.06;61.63
74376;HTU21D;62812;55.188;61.302;2023-08-31T09:52:36;17.00;62.02
74376;HTU21D;62812;55.188;61.302;2023-08-31T09:55:05;16.98;64.76
74376;HTU21D;62812;55.188;61.302;2023-08-31T09:57:33;16.93;64.32
74376;HTU21D;62812;55.188;61.302;2023-08-31T10:00:00;16.90;63.61
74376;HTU21D;62812;55.188;61.302;2023-08-31T10:02:28;16.79;64.21
74376;HTU21D;62812;55.188;61.302;2023-08-31T10:04:56;16.73;61.89
74376;HTU21D;62812;55.188;61.302;2023-08-31T10:07:30;16.75;63.82
74376;HTU21D;62812;55.188;61.302;2023-08-31T10:10:00;16.85;63.58
74376;HTU21D;62812;55.188;61.302;2023-08-31T10:12:27;16.80;63.15
74376;HTU21D;62812;55.188;61.302;2023-08-31T10:14:55;16.78;61.90
74376;HTU21D;62812;55.188;61.302;2023-08-31T10:17:23;16.80;62.20
74376;HTU21D;62812;55.188;61.302;2023-08-31T10:19:52;16.78;63.90
74376;HTU21D;62812;55.188;61.302;2023-08-31T10:22:19;16.84;63.96
74376;HTU21D;62812;55.188;61.302;2023-08-31T10:24:59;16.85;65.17
74376;HTU21D;62812;55.188;61.302;2023-08-31T10:27:27;16.85;64.88
74376;HTU21D;62812;55.188;61.302;2023-08-31T10:29:54;16.87;64.69
74376;HTU21D;62812;55.188;61.302;2023-08-31T10:32:24;16.90;62.00
74376;HTU21D;62812;55.188;61.302;2023-08-31T10:35:08;16.99;63.87
74376;HTU21D;62812;55.188;61.302;2023-08-31T10:37:35;17.03;63.23
74376;HTU21D;62812;55.188;61.302;2023-08-31T10:40:10;17.08;66.29
74376;HTU21D;62812;55.188;61.302;2023-08-31T10:42:42;17.11;62.07
74376;HTU21D;62812;55.188;61.302;2023-08-31T10:45:11;17.13;65.52
74376;HTU21D;62812;55.188;61.302;2023-08-31T10:47:40;17.15;62.36
74376;HTU21D;62812;55.188;61.302;2023-08-31T10:50:17;17.19;63.43
74376;HTU21D;62812;55.188;61.302;2023-08-31T10:52:45;17.18;63.44
74376;HTU21D;62812;55.188;61.302;2023-08-31T10:55:14;17.10;62.07
74376;HTU21D;62812;55.188;61.302;2023-08-31T10:57:41;17.09;65.68
74376;HTU21D;62812;55.188;61.302;2023-08-31T11:00:08;17.16;64.32
74376;HTU21D;62812;55.188;61.302;2023-08-31T11:02:38;17.18;65.11
74376;HTU21D;62812;55.188;61.302;2023-08-31T11:05:10;17.15;64.67
74376;HTU21D;62812;55.188;61.302;2023-08-31T11:07:38;17.04;64.40
74376;HTU21D;62812;55.188;61.302;2023-08-31T11:10:15;16.94;64.43
74376;HTU21D;62812;55.188;61.302;2023-08-31T11:12:46;16.84;65.62
74376;HTU21D;62812;55.188;61.302;2023-08-31T11:15:15;16.69;64.66
74376;HTU21D;62812;55.188;61.302;2023-08-31T11:17:42;16.62;66.10
74376;HTU21D;62812;55.188;61.302;2023-08-31T11:20:13;16.58;66.63
74376;HTU21D;62812;55.188;61.302;2023-08-31T11:22:42;16.54;65.27
74376;HTU21D;62812;55.188;61.302;2023-08-31T11:25:25;16.49;66.74
74376;HTU21D;62812;55.188;61.302;2023-08-31T11:27:55;16.44;66.47
74376;HTU21D;62812;55.188;61.302;2023-08-31T11:30:22;16.44;67.23
74376;HTU21D;62812;55.188;61.302;2023-08-31T11:32:53;16.37;66.66
74376;HTU21D;62812;55.188;61.302;2023-08-31T11:35:23;16.29;66.76
74376;HTU21D;62812;55.188;61.302;2023-08-31T11:37:54;16.24;68.30
74376;HTU21D;62812;55.188;61.302;2023-08-31T11:40:23;16.21;67.27
74376;HTU21D;62812;55.188;61.302;2023-08-31T11:42:52;16.18;67.64
74376;HTU21D;62812;55.188;61.302;2023-08-31T11:45:23;16.17;67.78
74376;HTU21D;62812;55.188;61.302;2023-08-31T11:47:55;16.07;68.48
74376;HTU21D;62812;55.188;61.302;2023-08-31T11:50:22;16.07;68.81
74376;HTU21D;62812;55.188;61.302;2023-08-31T11:52:50;16.00;68.87
74376;HTU21D;62812;55.188;61.302;2023-08-31T11:55:19;16.03;70.80
74376;HTU21D;62812;55.188;61.302;2023-08-31T11:57:54;16.00;69.60
74376;HTU21D;62812;55.188;61.302;2023-08-31T12:00:21;15.95;69.74
74376;HTU21D;62812;55.188;61.302;2023-08-31T12:02:56;15.90;70.07
74376;HTU21D;62812;55.188;61.302;2023-08-31T12:05:25;15.85;70.01
74376;HTU21D;62812;55.188;61.302;2023-08-31T12:07:53;15.83;70.53
74376;HTU21D;62812;55.188;61.302;2023-08-31T12:10:23;15.81;72.15
74376;HTU21D;62812;55.188;61.302;2023-08-31T12:12:53;15.78;70.58
74376;HTU21D;62812;55.188;61.302;2023-08-31T12:15:22;15.84;70.69
74376;HTU21D;62812;55.188;61.302;2023-08-31T12:17:52;15.83;70.91
74376;HTU21D;62812;55.188;61.302;2023-08-31T12:20:25;15.90;70.77
74376;HTU21D;62812;55.188;61.302;2023-08-31T12:22:52;15.88;71.05
74376;HTU21D;62812;55.188;61.302;2023-08-31T12:25:20;15.84;70.95
74376;HTU21D;62812;55.188;61.302;2023-08-31T12:27:54;15.78;70.99
74376;HTU21D;62812;55.188;61.302;2023-08-31T12:30:26;15.67;71.48
74376;HTU21D;62812;55.188;61.302;2023-08-31T12:32:53;15.60;72.51
74376;HTU21D;62812;55.188;61.302;2023-08-31T12:35:25;15.56;71.87
74376;HTU21D;62812;55.188;61.302;2023-08-31T12:38:01;15.49;72.38
74376;HTU21D;62812;55.188;61.302;2023-08-31T12:40:31;15.43;72.58
74376;HTU21D;62812;55.188;61.302;2023-08-31T12:42:58;15.37;72.87
74376;HTU21D;62812;55.188;61.302;2023-08-31T12:45:28;15.33;72.77
74376;HTU21D;62812;55.188;61.302;2023-08-31T12:47:54;15.28;72.69
74376;HTU21D;62812;55.188;61.302;2023-08-31T12:50:21;15.28;74.03
74376;HTU21D;62812;55.188;61.302;2023-08-31T12:52:48;15.32;74.47
74376;HTU21D;62812;55.188;61.302;2023-08-31T12:55:15;15.30;73.09
74376;HTU21D;62812;55.188;61.302;2023-08-31T12:57:43;15.27;74.48
74376;HTU21D;62812;55.188;61.302;2023-08-31T13:00:14;15.19;73.06
74376;HTU21D;62812;55.188;61.302;2023-08-31T13:02:42;15.19;73.78
74376;HTU21D;62812;55.188;61.302;2023-08-31T13:05:11;15.21;74.28
74376;HTU21D;62812;55.188;61.302;2023-08-31T13:07:38;15.16;73.74
74376;HTU21D;62812;55.188;61.302;2023-08-31T13:10:07;15.09;73.91
74376;HTU21D;62812;55.188;61.302;2023-08-31T13:12:34;15.12;74.10
74376;HTU21D;62812;55.188;61.302;2023-08-31T13:15:19;15.10;74.73
74376;HTU21D;62812;55.188;61.302;2023-08-31T13:17:47;15.11;75.18
74376;HTU21D;62812;55.188;61.302;2023-08-31T13:20:13;15.09;74.95
74376;HTU21D;62812;55.188;61.302;2023-08-31T13:22:40;15.04;74.77
74376;HTU21D;62812;55.188;61.302;2023-08-31T13:25:07;14.97;74.88
74376;HTU21D;62812;55.188;61.302;2023-08-31T13:27:36;14.93;75.22
74376;HTU21D;62812;55.188;61.302;2023-08-31T13:30:07;14.83;76.09
74376;HTU21D;62812;55.188;61.302;2023-08-31T13:32:38;14.75;76.16
74376;HTU21D;62812;55.188;61.302;2023-08-31T13:35:07;14.72;76.24
74376;HTU21D;62812;55.188;61.302;2023-08-31T13:37:37;14.70;76.50
74376;HTU21D;62812;55.188;61.302;2023-08-31T13:40:04;14.66;76.44
74376;HTU21D;62812;55.188;61.302;2023-08-31T13:42:52;14.65;77.08
74376;HTU21D;62812;55.188;61.302;2023-08-31T13:45:30;14.66;76.96
74376;HTU21D;62812;55.188;61.302;2023-08-31T13:47:57;14.64;77.08
74376;HTU21D;62812;55.188;61.302;2023-08-31T13:50:29;14.58;77.36
74376;HTU21D;62812;55.188;61.302;2023-08-31T13:52:56;14.58;77.66
74376;HTU21D;62812;55.188;61.302;2023-08-31T13:55:23;14.58;77.94
74376;HTU21D;62812;55.188;61.302;2023-08-31T13:57:50;14.64;78.05
74376;HTU21D;62812;55.188;61.302;2023-08-31T14:00:18;14.65;77.68
74376;HTU21D;62812;55.188;61.302;2023-08-31T14:02:58;14.66;77.84
74376;HTU21D;62812;55.188;61.302;2023-08-31T14:05:55;14.63;77.66
74376;HTU21D;62812;55.188;61.302;2023-08-31T14:08:25;14.58;78.07
74376;HTU21D;62812;55.188;61.302;2023-08-31T14:10:55;14.56;78.11
74376;HTU21D;62812;55.188;61.302;2023-08-31T14:13:23;14.56;78.18
74376;HTU21D;62812;55.188;61.302;2023-08-31T14:15:53;14.48;78.29
74376;HTU21D;62812;55.188;61.302;2023-08-31T14:18:20;14.47;79.12
74376;HTU21D;62812;55.188;61.302;2023-08-31T14:20:48;14.48;78.78
74376;HTU21D;62812;55.188;61.302;2023-08-31T14:23:16;14.48;79.02
74376;HTU21D;62812;55.188;61.302;2023-08-31T14:25:45;14.44;79.12
74376;HTU21D;62812;55.188;61.302;2023-08-31T14:28:11;14.43;79.11
74376;HTU21D;62812;55.188;61.302;2023-08-31T14:30:38;14.44;79.21
74376;HTU21D;62812;55.188;61.302;2023-08-31T14:33:05;14.40;79.03
74376;HTU21D;62812;55.188;61.302;2023-08-31T14:35:31;14.42;79.11
74376;HTU21D;62812;55.188;61.302;2023-08-31T14:37:58;14.37;79.27
74376;HTU21D;62812;55.188;61.302;2023-08-31T14:40:27;14.32;79.33
74376;HTU21D;62812;55.188;61.302;2023-08-31T14:42:53;14.34;79.52
74376;HTU21D;62812;55.188;61.302;2023-08-31T14:45:20;14.32;79.53
74376;HTU21D;62812;55.188;61.302;2023-08-31T14:47:46;14.29;79.59
74376;HTU21D;62812;55.188;61.302;2023-08-31T14:50:14;14.26;79.59
74376;HTU21D;62812;55.188;61.302;2023-08-31T14:52:40;14.26;79.70
74376;HTU21D;62812;55.188;61.302;2023-08-31T14:55:10;14.24;79.68
74376;HTU21D;62812;55.188;61.302;2023-08-31T14:57:41;14.20;79.85
74376;HTU21D;62812;55.188;61.302;2023-08-31T15:00:09;14.20;79.86
74376;HTU21D;62812;55.188;61.302;2023-08-31T15:02:36;14.18;79.88
74376;HTU21D;62812;55.188;61.302;2023-08-31T15:05:03;14.17;79.93
74376;HTU21D;62812;55.188;61.302;2023-08-31T15:07:31;14.14;80.07
74376;HTU21D;62812;55.188;61.302;2023-08-31T15:09:57;14.10;80.14
74376;HTU21D;62812;55.188;61.302;2023-08-31T15:12:24;14.05;80.27
74376;HTU21D;62812;55.188;61.302;2023-08-31T15:14:52;14.03;80.28
74376;HTU21D;62812;55.188;61.302;2023-08-31T15:17:19;14.01;80.33
74376;HTU21D;62812;55.188;61.302;2023-08-31T15:20:20;14.00;80.36
74376;HTU21D;62812;55.188;61.302;2023-08-31T15:22:53;13.95;80.43